Pride Of Kent — MQCJ2 — position and weather

sailwx.info

Track history (hours):
 
Tides and Currents Weather Stations Pressure Air Temp Water Temp Dewpoint Dewpoint Depression Visibility Wind Speed Wind Dir Waves Ship Positions

Pride Of Kent

Operator: P & O Ferries

Last reported at 2017-Dec-11 17:00 UTC. Time now 2017-Dec-14 10:06 UTC.
Position N 50°58' E 001°52'.

Length 180 m; draft 6 m.

Type: Passenger vessel. MMSI: 232009000.

Date/timePositionNaut miles runAvg speedWind from/ knotsBaromVisibWave heightAir tempDewpointWater temp
2017-Dec-11 17:00N 50°58' E 001°52'0 0.0
2017-Dec-11 16:30N 50°58' E 001°52'0 0.0
2017-Dec-11 16:00N 50°58' E 001°52'0 0.0
2017-Dec-11 15:30N 50°58' E 001°52'0 0.0
2017-Dec-11 15:00N 50°58' E 001°52'0 0.0
2017-Dec-11 14:29N 50°58' E 001°52'0 0.0
2017-Dec-11 14:00N 50°58' E 001°52'0 0.0
2017-Dec-11 13:30N 50°58' E 001°52'0 0.0
2017-Dec-11 13:00N 50°58' E 001°52'0 0.0
2017-Dec-11 12:30N 50°58' E 001°52'0 0.0
2017-Dec-11 12:00N 50°58' E 001°52'0 0.0
2017-Dec-11 11:30N 50°58' E 001°52'0 0.0
2017-Dec-11 11:00N 50°58' E 001°52'0 0.0
2017-Dec-11 10:30N 50°58' E 001°52'0 0.0
2017-Dec-11 10:00N 50°58' E 001°52'0 0.0
2017-Dec-11 09:30N 50°58' E 001°52'0 0.0
2017-Dec-11 09:00N 50°58' E 001°52'0 0.0
2017-Dec-11 08:30N 50°58' E 001°52'0 0.0
2017-Dec-11 08:00N 50°58' E 001°52'0 0.0
2017-Dec-11 07:30N 50°58' E 001°52'0 0.0
2017-Dec-11 07:00N 50°58' E 001°52'0 0.0
2017-Dec-11 06:31N 50°58' E 001°52'0 0.0
2017-Dec-11 06:00N 50°58' E 001°52'0 0.0
2017-Dec-11 05:30N 50°58' E 001°52'0 0.0
2017-Dec-11 05:00N 50°58' E 001°52'0 0.0
2017-Dec-11 04:30N 50°58' E 001°52'0 0.0
2017-Dec-11 04:00N 50°58' E 001°52'0 0.0
2017-Dec-11 03:31N 50°58' E 001°52'0 0.0
2017-Dec-11 03:00N 50°58' E 001°52'0 0.0
2017-Dec-11 02:30N 50°58' E 001°52'0 0.0
2017-Dec-11 02:00N 50°58' E 001°52'0 0.0
2017-Dec-11 01:30N 50°58' E 001°52'0 0.0
2017-Dec-11 01:00N 50°58' E 001°52'0 0.0
2017-Dec-11 00:30N 50°58' E 001°52'0 0.0
2017-Dec-11 00:00N 50°58' E 001°52'0 0.0
2017-Dec-10 23:30N 50°58' E 001°52'0 0.0
2017-Dec-10 23:00N 50°58' E 001°52'0 0.0
2017-Dec-10 22:30N 50°58' E 001°52'0 0.0
2017-Dec-10 22:00N 50°58' E 001°52'0 0.0
2017-Dec-10 21:30N 50°58' E 001°52'0 0.0
2017-Dec-10 21:00N 50°58' E 001°52'0 0.0
2017-Dec-10 20:30N 50°58' E 001°52'0 0.0
2017-Dec-10 20:00N 50°58' E 001°52'0 0.0
2017-Dec-10 19:30N 50°58' E 001°52'0 0.0
2017-Dec-10 19:00N 50°58' E 001°52'0 0.0
2017-Dec-10 18:30N 50°58' E 001°52'0 0.0
2017-Dec-10 18:00N 50°58' E 001°52'0 0.3
2017-Dec-10 17:30N 50°58' E 001°51'0 0.6
2017-Dec-10 17:00N 50°58' E 001°51'0 0.0
2017-Dec-10 16:30N 50°58' E 001°51'0 0.0
2017-Dec-10 16:00N 50°58' E 001°51'0 0.0
2017-Dec-10 15:30N 50°58' E 001°51'0 0.0
2017-Dec-10 15:00N 50°58' E 001°51'0 0.0
2017-Dec-10 14:30N 50°58' E 001°51'0 0.1
2017-Dec-10 14:00N 50°58' E 001°51'0 0.1
2017-Dec-10 13:30N 50°58' E 001°51'0 0.2
2017-Dec-10 13:00N 50°58' E 001°51'0 0.0
2017-Dec-10 12:30N 50°58' E 001°51'0 0.0
2017-Dec-10 12:00N 50°58' E 001°51'0 0.4
2017-Dec-10 11:30N 50°58' E 001°51'0 0.0
2017-Dec-10 11:00N 50°58' E 001°51'0 0.5
2017-Dec-10 10:30N 50°58' E 001°51'2 4.7
2017-Dec-10 10:00N 50°58' E 001°47'612.5
2017-Dec-10 09:30N 50°60' E 001°37'815.9
2017-Dec-10 09:00N 51°04' E 001°27'6 3.2
2017-Dec-10 07:17N 51°07' E 001°20'0 0.3
2017-Dec-10 07:00N 51°07' E 001°20'612.6
2017-Dec-10 06:30N 51°06' E 001°30'918.3
2017-Dec-10 06:00N 51°00' E 001°41'713.9
2017-Dec-10 05:31N 50°58' E 001°51'0 0.2
2017-Dec-10 05:01N 50°58' E 001°51'2 3.1
2017-Dec-10 04:31N 50°58' E 001°49'918.2
2017-Dec-10 04:00N 51°01' E 001°35'917.7
2017-Dec-10 03:31N 51°06' E 001°24'3 2.4
2017-Dec-10 02:24N 51°07' E 001°20'410.6
2017-Dec-10 02:01N 51°07' E 001°27'714.5
2017-Dec-10 01:30N 51°03' E 001°36'816.0
2017-Dec-10 01:00N 50°58' E 001°46'3 6.2
2017-Dec-10 00:29N 50°58' E 001°51'0 0.0
2017-Dec-10 00:00N 50°58' E 001°51'1 1.1
2017-Dec-09 23:30N 50°58' E 001°51'815.6
2017-Dec-09 23:00N 50°59' E 001°38'918.2
2017-Dec-09 22:30N 51°04' E 001°26'510.3
2017-Dec-09 22:00N 51°07' E 001°20'0 0.0
2017-Dec-09 21:30N 51°07' E 001°20'4 8.7
2017-Dec-09 21:01N 51°07' E 001°27'917.6
2017-Dec-09 20:30N 51°01' E 001°38'817.0
2017-Dec-09 20:01N 50°58' E 001°50'1 1.1
2017-Dec-09 19:29N 50°58' E 001°51'0 0.2
2017-Dec-09 19:00N 50°58' E 001°51'816.0
2017-Dec-09 18:30N 50°59' E 001°38'918.8
2017-Dec-09 18:01N 51°04' E 001°26'5 5.3
2017-Dec-09 17:04N 51°07' E 001°20'0 0.5
2017-Dec-09 16:56N 51°07' E 001°20'511.7
2017-Dec-09 16:31N 51°07' E 001°28'816.9
2017-Dec-09 16:01N 51°02' E 001°39'714.8
2017-Dec-09 15:30N 50°58' E 001°49'1 2.2
2017-Dec-09 15:00N 50°58' E 001°51'0 0.1
2017-Dec-09 14:31N 50°58' E 001°51'917.3
2017-Dec-09 14:00N 50°57' E 001°37'815.9
2017-Dec-09 13:30N 51°02' E 001°26'7 6.3
2017-Dec-09 12:26N 51°07' E 001°20'512.2
2017-Dec-09 12:01N 51°06' E 001°28'917.1
2017-Dec-09 11:31N 51°00' E 001°38'816.3
2017-Dec-09 11:00N 50°58' E 001°51'0 0.3
2017-Dec-09 10:30N 50°58' E 001°51'2 3.1
2017-Dec-09 10:00N 50°58' E 001°49'816.1
2017-Dec-09 09:30N 50°60' E 001°36'918.1
2017-Dec-09 09:01N 51°05' E 001°24'3 2.9
2017-Dec-09 07:49N 51°07' E 001°20'413.1
2017-Dec-09 07:31N 51°07' E 001°26'612.6
2017-Dec-09 07:00N 51°06' E 001°36'510.8
2017-Dec-09 06:31N 51°01' E 001°40'713.6
2017-Dec-09 06:00N 50°58' E 001°50'1 1.6
2017-Dec-09 05:30N 50°58' E 001°51'0 0.0
2017-Dec-09 04:59N 50°58' E 001°51'0 0.5
2017-Dec-09 04:30N 50°58' E 001°51'917.2
2017-Dec-09 03:58N 50°59' E 001°36'818.1
2017-Dec-09 03:30N 51°05' E 001°26'5 8.2
2017-Dec-09 02:57N 51°07' E 001°20'0 0.2
2017-Dec-09 02:10N 51°07' E 001°20'1 3.9
2017-Dec-09 02:00N 51°07' E 001°21'815.9
2017-Dec-09 01:31N 51°03' E 001°32'917.5
2017-Dec-09 01:01N 50°58' E 001°44'5 9.4
2017-Dec-09 00:30N 50°58' E 001°51'0 0.1
2017-Dec-08 23:58N 50°58' E 001°51'613.1
2017-Dec-08 23:31N 50°58' E 001°42'816.6
2017-Dec-08 23:00N 51°03' E 001°30'8 7.1
2017-Dec-08 21:52N 51°07' E 001°20'3 9.7
2017-Dec-08 21:31N 51°07' E 001°25'918.3
2017-Dec-08 21:01N 51°03' E 001°39'815.7
2017-Dec-08 20:31N 50°58' E 001°49'1 2.9
2017-Dec-08 20:00N 50°58' E 001°51'0 0.0
2017-Dec-08 19:30N 50°58' E 001°51'4 8.4
2017-Dec-08 19:01N 50°58' E 001°44'917.7
2017-Dec-08 18:30N 51°02' E 001°32'917.7
2017-Dec-08 18:00N 51°07' E 001°20'0 0.2
2017-Dec-08 17:15N 51°07' E 001°20'1 2.2
2017-Dec-08 17:00N 51°07' E 001°21'816.4
2017-Dec-08 16:30N 51°04' E 001°33'816.3
2017-Dec-08 16:00N 50°59' E 001°43'5 5.4
2017-Dec-08 15:05N 50°58' E 001°51'0 0.0
2017-Dec-08 14:49N 50°58' E 001°51'1 4.2
2017-Dec-08 14:31N 50°58' E 001°49'918.7
2017-Dec-08 14:00N 51°01' E 001°34'918.1
2017-Dec-08 13:30N 51°06' E 001°23'2 2.7
2017-Dec-08 12:39N 51°07' E 001°20'0 1.2
2017-Dec-08 12:30N 51°07' E 001°20'612.8
2017-Dec-08 12:01N 51°07' E 001°30'917.2
2017-Dec-08 11:30N 51°01' E 001°41'714.2
2017-Dec-08 11:01N 50°58' E 001°51'0 0.2
2017-Dec-08 10:30N 50°58' E 001°51'1 3.0
2017-Dec-08 10:00N 50°58' E 001°49'713.9
2017-Dec-08 09:30N 50°58' E 001°38'917.5
2017-Dec-08 09:01N 51°04' E 001°26'610.5
2017-Dec-08 08:29N 51°07' E 001°20'0 0.0
2017-Dec-08 07:59N 51°07' E 001°20'0 0.7
2017-Dec-08 07:30N 51°07' E 001°21'816.6
2017-Dec-08 07:00N 51°04' E 001°32'816.9
2017-Dec-08 06:31N 50°59' E 001°43'5 9.7
2017-Dec-08 06:00N 50°58' E 001°51'0 0.0
2017-Dec-08 05:30N 50°58' E 001°51'0 0.0
2017-Dec-08 04:58N 50°58' E 001°51'0 0.0
2017-Dec-08 04:24N 50°58' E 001°51'0 0.0
2017-Dec-08 04:00N 50°58' E 001°51'0 0.0
2017-Dec-08 03:25N 50°58' E 001°51'0 0.0
2017-Dec-08 03:00N 50°58' E 001°51'3 6.8
2017-Dec-08 02:30N 50°58' E 001°46'918.6
2017-Dec-08 02:01N 51°02' E 001°32'714.3
2017-Dec-08 01:30N 51°06' E 001°23'2 2.0
2017-Dec-08 00:18N 51°07' E 001°20'1 3.8
2017-Dec-08 00:00N 51°07' E 001°22'917.2
2017-Dec-07 23:30N 51°02' E 001°33'918.1
2017-Dec-07 23:00N 50°58' E 001°46'3 6.6
2017-Dec-07 22:30N 50°58' E 001°51'0 0.0
2017-Dec-07 22:00N 50°58' E 001°51'2 5.0
2017-Dec-07 21:31N 50°58' E 001°47'816.0
2017-Dec-07 21:01N 51°00' E 001°35'918.0
2017-Dec-07 20:30N 51°06' E 001°24'3 2.5
2017-Dec-07 19:27N 51°07' E 001°20'410.2
2017-Dec-07 19:01N 51°06' E 001°27'917.8
2017-Dec-07 18:31N 51°01' E 001°38'816.4
2017-Dec-07 18:01N 50°58' E 001°51'0 0.7
2017-Dec-07 17:30N 50°58' E 001°51'0 0.0
2017-Dec-07 17:00N 50°58' E 001°51'2 4.9
2017-Dec-07 16:31N 50°58' E 001°47'918.1
2017-Dec-07 16:00N 51°01' E 001°33'917.9
2017-Dec-07 15:30N 51°07' E 001°22'2 1.4
2017-Dec-07 14:21N 51°07' E 001°20'2 5.2
2017-Dec-07 14:00N 51°07' E 001°23'3 5.7
2017-Dec-07 13:30N 51°09' E 001°27'2 4.3
2017-Dec-07 13:01N 51°07' E 001°28'510.5
2017-Dec-07 12:31N 51°03' E 001°34'815.1
2017-Dec-07 12:01N 50°59' E 001°44'5 9.2
2017-Dec-07 11:31N 50°58' E 001°51'0 0.0
2017-Dec-07 11:00N 50°58' E 001°51'1 2.7
2017-Dec-07 10:30N 50°58' E 001°49'816.6
2017-Dec-07 10:00N 51°00' E 001°36'917.4
2017-Dec-07 09:31N 51°05' E 001°25'4 2.8
2017-Dec-07 08:10N 51°07' E 001°20'0 1.2
2017-Dec-07 08:00N 51°07' E 001°20'510.7
2017-Dec-07 07:30N 51°05' E 001°28'917.8
2017-Dec-07 07:00N 51°01' E 001°40'715.0
2017-Dec-07 06:30N 50°58' E 001°51'0 0.1
2017-Dec-07 06:00N 50°58' E 001°51'0 0.4
2017-Dec-07 05:30N 50°58' E 001°51'712.9
2017-Dec-07 05:00N 50°59' E 001°40'918.1
2017-Dec-07 04:30N 51°03' E 001°28'6 8.9
2017-Dec-07 03:46N 51°07' E 001°20'0 0.0
2017-Dec-07 03:11N 51°07' E 001°20'0 0.6
2017-Dec-07 03:00N 51°07' E 001°20'714.3
2017-Dec-07 02:31N 51°04' E 001°30'816.2
2017-Dec-07 02:00N 50°60' E 001°41'612.4
2017-Dec-07 01:30N 50°58' E 001°51'1 1.2
2017-Dec-07 01:00N 50°58' E 001°52'0 0.0
2017-Dec-07 00:30N 50°58' E 001°52'0 0.2
2017-Dec-07 00:00N 50°58' E 001°52'816.0
2017-Dec-06 23:30N 50°58' E 001°39'816.3
2017-Dec-06 23:00N 51°03' E 001°28'7 4.2
2017-Dec-06 21:23N 51°07' E 001°20'3 8.8
2017-Dec-06 21:00N 51°07' E 001°25'  
2017-Dec-04 10:30N 50°58' E 001°52'0 0.0
2017-Dec-04 10:01N 50°58' E 001°52'3 5.3
2017-Dec-04 09:31N 50°58' E 001°47'917.7
2017-Dec-04 08:59N 50°60' E 001°33'918.6
2017-Dec-04 08:30N 51°06' E 001°23'2 2.5
2017-Dec-04 07:34N 51°07' E 001°20'0 0.7
2017-Dec-04 07:30N 51°07' E 001°20'611.5
2017-Dec-04 07:00N 51°05' E 001°28'918.8
2017-Dec-04 06:30N 50°60' E 001°41'713.4
2017-Dec-04 06:00N 50°58' E 001°51'0 0.8
2017-Dec-04 05:30N 50°58' E 001°52'0 0.0
2017-Dec-04 05:00N 50°58' E 001°52'4 8.3
2017-Dec-04 04:31N 50°58' E 001°45'815.7
2017-Dec-04 04:00N 51°02' E 001°34'816.4
2017-Dec-04 03:30N 51°06' E 001°23'2 3.7
2017-Dec-04 02:52N 51°07' E 001°20'0 0.0
2017-Dec-04 02:28N 51°07' E 001°20'4 9.2
2017-Dec-04 02:01N 51°06' E 001°27'815.7
2017-Dec-04 01:31N 51°03' E 001°38'714.5
2017-Dec-04 01:00N 50°58' E 001°47'3 6.1
2017-Dec-04 00:30N 50°58' E 001°52'0 0.0
2017-Dec-04 00:00N 50°58' E 001°52'0 0.0
2017-Dec-03 23:30N 50°58' E 001°52'1 2.3
2017-Dec-03 23:01N 50°58' E 001°50'1019.1
2017-Dec-03 22:30N 51°01' E 001°35'1019.4
2017-Dec-03 22:01N 51°06' E 001°23'2 3.4
2017-Dec-03 21:28N 51°07' E 001°20'0 0.1
2017-Dec-03 21:00N 51°07' E 001°20'713.5
2017-Dec-03 20:31N 51°06' E 001°30'918.4
2017-Dec-03 20:01N 50°60' E 001°41'611.7
2017-Dec-03 19:29N 50°58' E 001°51'0 0.0
2017-Dec-03 19:00N 50°58' E 001°51'2 3.9
2017-Dec-03 18:30N 50°58' E 001°48'816.4
2017-Dec-03 18:00N 50°60' E 001°35'918.5
2017-Dec-03 17:30N 51°05' E 001°23'3 5.8
2017-Dec-03 17:00N 51°07' E 001°20'0 0.3
2017-Dec-03 16:30N 51°07' E 001°20'715.2
2017-Dec-03 16:01N 51°05' E 001°31'918.5
2017-Dec-03 15:30N 50°59' E 001°43'510.6
2017-Dec-03 15:00N 50°58' E 001°51'0 0.0
2017-Dec-03 14:30N 50°58' E 001°51'2 3.7
2017-Dec-03 14:00N 50°58' E 001°48'918.6
2017-Dec-03 13:30N 51°01' E 001°34'1019.6
2017-Dec-03 13:00N 51°06' E 001°21'1 1.6
2017-Dec-03 12:16N 51°07' E 001°20'2 8.1
2017-Dec-03 12:00N 51°07' E 001°23'917.0
2017-Dec-03 11:30N 51°03' E 001°36'816.9
2017-Dec-03 11:00N 50°58' E 001°46'4 7.3
2017-Dec-03 10:30N 50°58' E 001°52'0 0.0
2017-Dec-03 10:01N 50°58' E 001°52'2 3.9
2017-Dec-03 09:30N 50°58' E 001°49'1019.6
2017-Dec-03 09:00N 50°60' E 001°33'918.9
2017-Dec-03 08:30N 51°07' E 001°23'2 1.4
2017-Dec-03 07:16N 51°07' E 001°20'2 8.9
2017-Dec-03 07:00N 51°07' E 001°24'917.9
2017-Dec-03 06:31N 51°02' E 001°36'917.7
2017-Dec-03 06:00N 50°58' E 001°48'2 4.3
2017-Dec-03 05:30N 50°58' E 001°52'0 0.0
2017-Dec-03 05:00N 50°58' E 001°52'0 0.0
2017-Dec-03 04:30N 50°58' E 001°52'0 0.0
2017-Dec-03 04:00N 50°58' E 001°52'0 0.0
2017-Dec-03 03:30N 50°58' E 001°52'0 0.0
2017-Dec-03 03:00N 50°58' E 001°52'0 0.0
2017-Dec-03 02:30N 50°58' E 001°52'0 0.0
2017-Dec-03 02:00N 50°58' E 001°52'0 0.0
2017-Dec-03 01:30N 50°58' E 001°52'0 0.0
2017-Dec-03 01:00N 50°58' E 001°52'0 0.0
2017-Dec-03 00:30N 50°58' E 001°52'0 0.0
2017-Dec-03 00:00N 50°58' E 001°52'0 0.0
2017-Dec-02 23:30N 50°58' E 001°52'0 0.0
2017-Dec-02 23:00N 50°58' E 001°52'0 0.0
2017-Dec-02 22:31N 50°58' E 001°52'0 0.0
2017-Dec-02 22:00N 50°58' E 001°52'0 0.0
2017-Dec-02 21:30N 50°58' E 001°52'0 0.0
2017-Dec-02 21:00N 50°58' E 001°52'0 0.0
2017-Dec-02 20:30N 50°58' E 001°52'0 0.0
2017-Dec-02 20:00N 50°58' E 001°52'0 0.0
2017-Dec-02 19:30N 50°58' E 001°52'0 0.0
2017-Dec-02 19:00N 50°58' E 001°52'3 5.3
2017-Dec-02 18:30N 50°58' E 001°48'816.6
2017-Dec-02 18:01N 50°59' E 001°34'918.8
2017-Dec-02 17:30N 51°06' E 001°24'3 4.6
2017-Dec-02 16:51N 51°07' E 001°20'0 0.2
2017-Dec-02 16:27N 51°07' E 001°20'614.2
2017-Dec-02 16:01N 51°06' E 001°30'918.5
2017-Dec-02 15:31N 50°60' E 001°41'712.9
2017-Dec-02 15:00N 50°58' E 001°51'0 0.0
2017-Dec-02 14:30N 50°58' E 001°51'3 5.6
2017-Dec-02 14:01N 50°58' E 001°47'918.1
2017-Dec-02 13:30N 51°01' E 001°33'1018.9
2017-Dec-02 13:00N 51°07' E 001°21'1 1.4
2017-Dec-02 12:29N 51°07' E 001°20'1 1.5
2017-Dec-02 12:00N 51°07' E 001°21'816.8
2017-Dec-02 11:30N 51°04' E 001°33'917.4
2017-Dec-02 11:00N 50°59' E 001°44'4 8.3
2017-Dec-02 10:30N 50°58' E 001°51'0 0.0
2017-Dec-02 10:00N 50°58' E 001°51'5 9.3
2017-Dec-02 09:31N 50°58' E 001°44'1019.0
2017-Dec-02 09:00N 51°02' E 001°30'815.2
2017-Dec-02 08:28N 51°07' E 001°20'0 0.0
2017-Dec-02 07:34N 51°07' E 001°20'0 0.2
2017-Dec-02 07:14N 51°07' E 001°20'2 7.1
2017-Dec-02 07:00N 51°07' E 001°23'917.2
2017-Dec-02 06:30N 51°03' E 001°35'918.2
2017-Dec-02 06:01N 50°58' E 001°47'3 5.1
2017-Dec-02 05:30N 50°58' E 001°51'0 0.0
2017-Dec-02 05:00N 50°58' E 001°51'4 8.5
2017-Dec-02 04:30N 50°58' E 001°44'816.1
2017-Dec-02 04:00N 51°00' E 001°32'816.8
2017-Dec-02 03:30N 51°06' E 001°23'2 1.6
2017-Dec-02 02:16N 51°07' E 001°20'2 7.4
2017-Dec-02 02:01N 51°07' E 001°23'815.4
2017-Dec-02 01:30N 51°03' E 001°34'815.8
2017-Dec-02 01:01N 50°58' E 001°44'4 8.9
2017-Dec-02 00:30N 50°58' E 001°51'0 0.0
2017-Dec-01 23:59N 50°58' E 001°51'0 0.0
2017-Dec-01 23:30N 50°58' E 001°51'511.1
2017-Dec-01 23:00N 50°58' E 001°42'1019.0
2017-Dec-01 22:30N 51°03' E 001°29'7 7.5
2017-Dec-01 21:32N 51°07' E 001°20'267.3
2017-Dec-01 21:30N 51°07' E 001°24'1 1.4
2017-Dec-01 20:52N 51°07' E 001°22'617.3
2017-Dec-01 20:30N 51°06' E 001°32'917.7
2017-Dec-01 20:00N 50°59' E 001°42'611.9
2017-Dec-01 19:31N 50°58' E 001°51'0 0.0
2017-Dec-01 18:56N 50°58' E 001°51'4 8.2
2017-Dec-01 18:30N 50°58' E 001°45'816.7
2017-Dec-01 18:00N 50°60' E 001°32'918.5
2017-Dec-01 17:31N 51°06' E 001°22'  
Track history (hours):
 
Tides and Currents Weather Stations Pressure Air Temp Water Temp Dewpoint Dewpoint Depression Visibility Wind Speed Wind Dir Waves Ship Positions

Pride Of Kent

Operator: P & O Ferries

Last reported at 2017-Dec-11 17:00 UTC. Time now 2017-Dec-14 10:07 UTC.
Position N 50°58' E 001°52'.

Length 180 m; draft 6 m.

Type: Passenger vessel. MMSI: 232009000.

Date/timePositionNaut miles runAvg speedWind from/ knotsBaromVisibWave heightAir tempDewpointWater temp
2017-Dec-11 17:00N 50°58' E 001°52'0 0.0
2017-Dec-11 16:30N 50°58' E 001°52'0 0.0
2017-Dec-11 16:00N 50°58' E 001°52'0 0.0
2017-Dec-11 15:30N 50°58' E 001°52'0 0.0
2017-Dec-11 15:00N 50°58' E 001°52'0 0.0
2017-Dec-11 14:29N 50°58' E 001°52'0 0.0
2017-Dec-11 14:00N 50°58' E 001°52'0 0.0
2017-Dec-11 13:30N 50°58' E 001°52'0 0.0
2017-Dec-11 13:00N 50°58' E 001°52'0 0.0
2017-Dec-11 12:30N 50°58' E 001°52'0 0.0
2017-Dec-11 12:00N 50°58' E 001°52'0 0.0
2017-Dec-11 11:30N 50°58' E 001°52'0 0.0
2017-Dec-11 11:00N 50°58' E 001°52'0 0.0
2017-Dec-11 10:30N 50°58' E 001°52'0 0.0
2017-Dec-11 10:00N 50°58' E 001°52'0 0.0
2017-Dec-11 09:30N 50°58' E 001°52'0 0.0
2017-Dec-11 09:00N 50°58' E 001°52'0 0.0
2017-Dec-11 08:30N 50°58' E 001°52'0 0.0
2017-Dec-11 08:00N 50°58' E 001°52'0 0.0
2017-Dec-11 07:30N 50°58' E 001°52'0 0.0
2017-Dec-11 07:00N 50°58' E 001°52'0 0.0
2017-Dec-11 06:31N 50°58' E 001°52'0 0.0
2017-Dec-11 06:00N 50°58' E 001°52'0 0.0
2017-Dec-11 05:30N 50°58' E 001°52'0 0.0
2017-Dec-11 05:00N 50°58' E 001°52'0 0.0
2017-Dec-11 04:30N 50°58' E 001°52'0 0.0
2017-Dec-11 04:00N 50°58' E 001°52'0 0.0
2017-Dec-11 03:31N 50°58' E 001°52'0 0.0
2017-Dec-11 03:00N 50°58' E 001°52'0 0.0
2017-Dec-11 02:30N 50°58' E 001°52'0 0.0
2017-Dec-11 02:00N 50°58' E 001°52'0 0.0
2017-Dec-11 01:30N 50°58' E 001°52'0 0.0
2017-Dec-11 01:00N 50°58' E 001°52'0 0.0
2017-Dec-11 00:30N 50°58' E 001°52'0 0.0
2017-Dec-11 00:00N 50°58' E 001°52'0 0.0
2017-Dec-10 23:30N 50°58' E 001°52'0 0.0
2017-Dec-10 23:00N 50°58' E 001°52'0 0.0
2017-Dec-10 22:30N 50°58' E 001°52'0 0.0
2017-Dec-10 22:00N 50°58' E 001°52'0 0.0
2017-Dec-10 21:30N 50°58' E 001°52'0 0.0
2017-Dec-10 21:00N 50°58' E 001°52'0 0.0
2017-Dec-10 20:30N 50°58' E 001°52'0 0.0
2017-Dec-10 20:00N 50°58' E 001°52'0 0.0
2017-Dec-10 19:30N 50°58' E 001°52'0 0.0
2017-Dec-10 19:00N 50°58' E 001°52'0 0.0
2017-Dec-10 18:30N 50°58' E 001°52'0 0.0
2017-Dec-10 18:00N 50°58' E 001°52'0 0.3
2017-Dec-10 17:30N 50°58' E 001°51'0 0.6
2017-Dec-10 17:00N 50°58' E 001°51'0 0.0
2017-Dec-10 16:30N 50°58' E 001°51'0 0.0
2017-Dec-10 16:00N 50°58' E 001°51'0 0.0
2017-Dec-10 15:30N 50°58' E 001°51'0 0.0
2017-Dec-10 15:00N 50°58' E 001°51'0 0.0
2017-Dec-10 14:30N 50°58' E 001°51'0 0.1
2017-Dec-10 14:00N 50°58' E 001°51'0 0.1
2017-Dec-10 13:30N 50°58' E 001°51'0 0.2
2017-Dec-10 13:00N 50°58' E 001°51'0 0.0
2017-Dec-10 12:30N 50°58' E 001°51'0 0.0
2017-Dec-10 12:00N 50°58' E 001°51'0 0.4
2017-Dec-10 11:30N 50°58' E 001°51'0 0.0
2017-Dec-10 11:00N 50°58' E 001°51'0 0.5
2017-Dec-10 10:30N 50°58' E 001°51'2 4.7
2017-Dec-10 10:00N 50°58' E 001°47'612.5
2017-Dec-10 09:30N 50°60' E 001°37'815.9
2017-Dec-10 09:00N 51°04' E 001°27'6 3.2
2017-Dec-10 07:17N 51°07' E 001°20'0 0.3
2017-Dec-10 07:00N 51°07' E 001°20'612.6
2017-Dec-10 06:30N 51°06' E 001°30'918.3
2017-Dec-10 06:00N 51°00' E 001°41'713.9
2017-Dec-10 05:31N 50°58' E 001°51'0 0.2
2017-Dec-10 05:01N 50°58' E 001°51'2 3.1
2017-Dec-10 04:31N 50°58' E 001°49'918.2
2017-Dec-10 04:00N 51°01' E 001°35'917.7
2017-Dec-10 03:31N 51°06' E 001°24'3 2.4
2017-Dec-10 02:24N 51°07' E 001°20'410.6
2017-Dec-10 02:01N 51°07' E 001°27'714.5
2017-Dec-10 01:30N 51°03' E 001°36'816.0
2017-Dec-10 01:00N 50°58' E 001°46'3 6.2
2017-Dec-10 00:29N 50°58' E 001°51'0 0.0
2017-Dec-10 00:00N 50°58' E 001°51'1 1.1
2017-Dec-09 23:30N 50°58' E 001°51'815.6
2017-Dec-09 23:00N 50°59' E 001°38'918.2
2017-Dec-09 22:30N 51°04' E 001°26'510.3
2017-Dec-09 22:00N 51°07' E 001°20'0 0.0
2017-Dec-09 21:30N 51°07' E 001°20'4 8.7
2017-Dec-09 21:01N 51°07' E 001°27'917.6
2017-Dec-09 20:30N 51°01' E 001°38'817.0
2017-Dec-09 20:01N 50°58' E 001°50'1 1.1
2017-Dec-09 19:29N 50°58' E 001°51'0 0.2
2017-Dec-09 19:00N 50°58' E 001°51'816.0
2017-Dec-09 18:30N 50°59' E 001°38'918.8
2017-Dec-09 18:01N 51°04' E 001°26'5 5.3
2017-Dec-09 17:04N 51°07' E 001°20'0 0.5
2017-Dec-09 16:56N 51°07' E 001°20'511.7
2017-Dec-09 16:31N 51°07' E 001°28'816.9
2017-Dec-09 16:01N 51°02' E 001°39'714.8
2017-Dec-09 15:30N 50°58' E 001°49'1 2.2
2017-Dec-09 15:00N 50°58' E 001°51'0 0.1
2017-Dec-09 14:31N 50°58' E 001°51'917.3
2017-Dec-09 14:00N 50°57' E 001°37'815.9
2017-Dec-09 13:30N 51°02' E 001°26'7 6.3
2017-Dec-09 12:26N 51°07' E 001°20'512.2
2017-Dec-09 12:01N 51°06' E 001°28'917.1
2017-Dec-09 11:31N 51°00' E 001°38'816.3
2017-Dec-09 11:00N 50°58' E 001°51'0 0.3
2017-Dec-09 10:30N 50°58' E 001°51'2 3.1
2017-Dec-09 10:00N 50°58' E 001°49'816.1
2017-Dec-09 09:30N 50°60' E 001°36'918.1
2017-Dec-09 09:01N 51°05' E 001°24'3 2.9
2017-Dec-09 07:49N 51°07' E 001°20'413.1
2017-Dec-09 07:31N 51°07' E 001°26'612.6
2017-Dec-09 07:00N 51°06' E 001°36'510.8
2017-Dec-09 06:31N 51°01' E 001°40'713.6
2017-Dec-09 06:00N 50°58' E 001°50'1 1.6
2017-Dec-09 05:30N 50°58' E 001°51'0 0.0
2017-Dec-09 04:59N 50°58' E 001°51'0 0.5
2017-Dec-09 04:30N 50°58' E 001°51'917.2
2017-Dec-09 03:58N 50°59' E 001°36'818.1
2017-Dec-09 03:30N 51°05' E 001°26'5 8.2
2017-Dec-09 02:57N 51°07' E 001°20'0 0.2
2017-Dec-09 02:10N 51°07' E 001°20'1 3.9
2017-Dec-09 02:00N 51°07' E 001°21'815.9
2017-Dec-09 01:31N 51°03' E 001°32'917.5
2017-Dec-09 01:01N 50°58' E 001°44'5 9.4
2017-Dec-09 00:30N 50°58' E 001°51'0 0.1
2017-Dec-08 23:58N 50°58' E 001°51'613.1
2017-Dec-08 23:31N 50°58' E 001°42'816.6
2017-Dec-08 23:00N 51°03' E 001°30'8 7.1
2017-Dec-08 21:52N 51°07' E 001°20'3 9.7
2017-Dec-08 21:31N 51°07' E 001°25'918.3
2017-Dec-08 21:01N 51°03' E 001°39'815.7
2017-Dec-08 20:31N 50°58' E 001°49'1 2.9
2017-Dec-08 20:00N 50°58' E 001°51'0 0.0
2017-Dec-08 19:30N 50°58' E 001°51'4 8.4
2017-Dec-08 19:01N 50°58' E 001°44'917.7
2017-Dec-08 18:30N 51°02' E 001°32'917.7
2017-Dec-08 18:00N 51°07' E 001°20'0 0.2
2017-Dec-08 17:15N 51°07' E 001°20'1 2.2
2017-Dec-08 17:00N 51°07' E 001°21'816.4
2017-Dec-08 16:30N 51°04' E 001°33'816.3
2017-Dec-08 16:00N 50°59' E 001°43'5 5.4
2017-Dec-08 15:05N 50°58' E 001°51'0 0.0
2017-Dec-08 14:49N 50°58' E 001°51'1 4.2
2017-Dec-08 14:31N 50°58' E 001°49'918.7
2017-Dec-08 14:00N 51°01' E 001°34'918.1
2017-Dec-08 13:30N 51°06' E 001°23'2 2.7
2017-Dec-08 12:39N 51°07' E 001°20'0 1.2
2017-Dec-08 12:30N 51°07' E 001°20'612.8
2017-Dec-08 12:01N 51°07' E 001°30'917.2
2017-Dec-08 11:30N 51°01' E 001°41'714.2
2017-Dec-08 11:01N 50°58' E 001°51'0 0.2
2017-Dec-08 10:30N 50°58' E 001°51'1 3.0
2017-Dec-08 10:00N 50°58' E 001°49'713.9
2017-Dec-08 09:30N 50°58' E 001°38'917.5
2017-Dec-08 09:01N 51°04' E 001°26'610.5
2017-Dec-08 08:29N 51°07' E 001°20'0 0.0
2017-Dec-08 07:59N 51°07' E 001°20'0 0.7
2017-Dec-08 07:30N 51°07' E 001°21'816.6
2017-Dec-08 07:00N 51°04' E 001°32'816.9
2017-Dec-08 06:31N 50°59' E 001°43'5 9.7
2017-Dec-08 06:00N 50°58' E 001°51'0 0.0
2017-Dec-08 05:30N 50°58' E 001°51'0 0.0
2017-Dec-08 04:58N 50°58' E 001°51'0 0.0
2017-Dec-08 04:24N 50°58' E 001°51'0 0.0
2017-Dec-08 04:00N 50°58' E 001°51'0 0.0
2017-Dec-08 03:25N 50°58' E 001°51'0 0.0
2017-Dec-08 03:00N 50°58' E 001°51'3 6.8
2017-Dec-08 02:30N 50°58' E 001°46'918.6
2017-Dec-08 02:01N 51°02' E 001°32'714.3
2017-Dec-08 01:30N 51°06' E 001°23'2 2.0
2017-Dec-08 00:18N 51°07' E 001°20'1 3.8
2017-Dec-08 00:00N 51°07' E 001°22'917.2
2017-Dec-07 23:30N 51°02' E 001°33'918.1
2017-Dec-07 23:00N 50°58' E 001°46'3 6.6
2017-Dec-07 22:30N 50°58' E 001°51'0 0.0
2017-Dec-07 22:00N 50°58' E 001°51'2 5.0
2017-Dec-07 21:31N 50°58' E 001°47'816.0
2017-Dec-07 21:01N 51°00' E 001°35'918.0
2017-Dec-07 20:30N 51°06' E 001°24'3 2.5
2017-Dec-07 19:27N 51°07' E 001°20'410.2
2017-Dec-07 19:01N 51°06' E 001°27'917.8
2017-Dec-07 18:31N 51°01' E 001°38'816.4
2017-Dec-07 18:01N 50°58' E 001°51'0 0.7
2017-Dec-07 17:30N 50°58' E 001°51'0 0.0
2017-Dec-07 17:00N 50°58' E 001°51'2 4.9
2017-Dec-07 16:31N 50°58' E 001°47'918.1
2017-Dec-07 16:00N 51°01' E 001°33'917.9
2017-Dec-07 15:30N 51°07' E 001°22'2 1.4
2017-Dec-07 14:21N 51°07' E 001°20'2 5.2
2017-Dec-07 14:00N 51°07' E 001°23'3 5.7
2017-Dec-07 13:30N 51°09' E 001°27'2 4.3
2017-Dec-07 13:01N 51°07' E 001°28'510.5
2017-Dec-07 12:31N 51°03' E 001°34'815.1
2017-Dec-07 12:01N 50°59' E 001°44'5 9.2
2017-Dec-07 11:31N 50°58' E 001°51'0 0.0
2017-Dec-07 11:00N 50°58' E 001°51'1 2.7
2017-Dec-07 10:30N 50°58' E 001°49'816.6
2017-Dec-07 10:00N 51°00' E 001°36'917.4
2017-Dec-07 09:31N 51°05' E 001°25'4 2.8
2017-Dec-07 08:10N 51°07' E 001°20'0 1.2
2017-Dec-07 08:00N 51°07' E 001°20'510.7
2017-Dec-07 07:30N 51°05' E 001°28'917.8
2017-Dec-07 07:00N 51°01' E 001°40'715.0
2017-Dec-07 06:30N 50°58' E 001°51'0 0.1
2017-Dec-07 06:00N 50°58' E 001°51'0 0.4
2017-Dec-07 05:30N 50°58' E 001°51'712.9
2017-Dec-07 05:00N 50°59' E 001°40'918.1
2017-Dec-07 04:30N 51°03' E 001°28'6 8.9
2017-Dec-07 03:46N 51°07' E 001°20'0 0.0
2017-Dec-07 03:11N 51°07' E 001°20'0 0.6
2017-Dec-07 03:00N 51°07' E 001°20'714.3
2017-Dec-07 02:31N 51°04' E 001°30'816.2
2017-Dec-07 02:00N 50°60' E 001°41'612.4
2017-Dec-07 01:30N 50°58' E 001°51'1 1.2
2017-Dec-07 01:00N 50°58' E 001°52'0 0.0
2017-Dec-07 00:30N 50°58' E 001°52'0 0.2
2017-Dec-07 00:00N 50°58' E 001°52'816.0
2017-Dec-06 23:30N 50°58' E 001°39'816.3
2017-Dec-06 23:00N 51°03' E 001°28'7 4.2
2017-Dec-06 21:23N 51°07' E 001°20'3 8.8
2017-Dec-06 21:00N 51°07' E 001°25'  
2017-Dec-04 10:30N 50°58' E 001°52'0 0.0
2017-Dec-04 10:01N 50°58' E 001°52'3 5.3
2017-Dec-04 09:31N 50°58' E 001°47'917.7
2017-Dec-04 08:59N 50°60' E 001°33'918.6
2017-Dec-04 08:30N 51°06' E 001°23'2 2.5
2017-Dec-04 07:34N 51°07' E 001°20'0 0.7
2017-Dec-04 07:30N 51°07' E 001°20'611.5
2017-Dec-04 07:00N 51°05' E 001°28'918.8
2017-Dec-04 06:30N 50°60' E 001°41'713.4
2017-Dec-04 06:00N 50°58' E 001°51'0 0.8
2017-Dec-04 05:30N 50°58' E 001°52'0 0.0
2017-Dec-04 05:00N 50°58' E 001°52'4 8.3
2017-Dec-04 04:31N 50°58' E 001°45'815.7
2017-Dec-04 04:00N 51°02' E 001°34'816.4
2017-Dec-04 03:30N 51°06' E 001°23'2 3.7
2017-Dec-04 02:52N 51°07' E 001°20'0 0.0
2017-Dec-04 02:28N 51°07' E 001°20'4 9.2
2017-Dec-04 02:01N 51°06' E 001°27'815.7
2017-Dec-04 01:31N 51°03' E 001°38'714.5
2017-Dec-04 01:00N 50°58' E 001°47'3 6.1
2017-Dec-04 00:30N 50°58' E 001°52'0 0.0
2017-Dec-04 00:00N 50°58' E 001°52'0 0.0
2017-Dec-03 23:30N 50°58' E 001°52'1 2.3
2017-Dec-03 23:01N 50°58' E 001°50'1019.1
2017-Dec-03 22:30N 51°01' E 001°35'1019.4
2017-Dec-03 22:01N 51°06' E 001°23'2 3.4
2017-Dec-03 21:28N 51°07' E 001°20'0 0.1
2017-Dec-03 21:00N 51°07' E 001°20'713.5
2017-Dec-03 20:31N 51°06' E 001°30'918.4
2017-Dec-03 20:01N 50°60' E 001°41'611.7
2017-Dec-03 19:29N 50°58' E 001°51'0 0.0
2017-Dec-03 19:00N 50°58' E 001°51'2 3.9
2017-Dec-03 18:30N 50°58' E 001°48'816.4
2017-Dec-03 18:00N 50°60' E 001°35'918.5
2017-Dec-03 17:30N 51°05' E 001°23'3 5.8
2017-Dec-03 17:00N 51°07' E 001°20'0 0.3
2017-Dec-03 16:30N 51°07' E 001°20'715.2
2017-Dec-03 16:01N 51°05' E 001°31'918.5
2017-Dec-03 15:30N 50°59' E 001°43'510.6
2017-Dec-03 15:00N 50°58' E 001°51'0 0.0
2017-Dec-03 14:30N 50°58' E 001°51'2 3.7
2017-Dec-03 14:00N 50°58' E 001°48'918.6
2017-Dec-03 13:30N 51°01' E 001°34'1019.6
2017-Dec-03 13:00N 51°06' E 001°21'1 1.6
2017-Dec-03 12:16N 51°07' E 001°20'2 8.1
2017-Dec-03 12:00N 51°07' E 001°23'917.0
2017-Dec-03 11:30N 51°03' E 001°36'816.9
2017-Dec-03 11:00N 50°58' E 001°46'4 7.3
2017-Dec-03 10:30N 50°58' E 001°52'0 0.0
2017-Dec-03 10:01N 50°58' E 001°52'2 3.9
2017-Dec-03 09:30N 50°58' E 001°49'1019.6
2017-Dec-03 09:00N 50°60' E 001°33'918.9
2017-Dec-03 08:30N 51°07' E 001°23'2 1.4
2017-Dec-03 07:16N 51°07' E 001°20'2 8.9
2017-Dec-03 07:00N 51°07' E 001°24'917.9
2017-Dec-03 06:31N 51°02' E 001°36'917.7
2017-Dec-03 06:00N 50°58' E 001°48'2 4.3
2017-Dec-03 05:30N 50°58' E 001°52'0 0.0
2017-Dec-03 05:00N 50°58' E 001°52'0 0.0
2017-Dec-03 04:30N 50°58' E 001°52'0 0.0
2017-Dec-03 04:00N 50°58' E 001°52'0 0.0
2017-Dec-03 03:30N 50°58' E 001°52'0 0.0
2017-Dec-03 03:00N 50°58' E 001°52'0 0.0
2017-Dec-03 02:30N 50°58' E 001°52'0 0.0
2017-Dec-03 02:00N 50°58' E 001°52'0 0.0
2017-Dec-03 01:30N 50°58' E 001°52'0 0.0
2017-Dec-03 01:00N 50°58' E 001°52'0 0.0
2017-Dec-03 00:30N 50°58' E 001°52'0 0.0
2017-Dec-03 00:00N 50°58' E 001°52'0 0.0
2017-Dec-02 23:30N 50°58' E 001°52'0 0.0
2017-Dec-02 23:00N 50°58' E 001°52'0 0.0
2017-Dec-02 22:31N 50°58' E 001°52'0 0.0
2017-Dec-02 22:00N 50°58' E 001°52'0 0.0
2017-Dec-02 21:30N 50°58' E 001°52'0 0.0
2017-Dec-02 21:00N 50°58' E 001°52'0 0.0
2017-Dec-02 20:30N 50°58' E 001°52'0 0.0
2017-Dec-02 20:00N 50°58' E 001°52'0 0.0
2017-Dec-02 19:30N 50°58' E 001°52'0 0.0
2017-Dec-02 19:00N 50°58' E 001°52'3 5.3
2017-Dec-02 18:30N 50°58' E 001°48'816.6
2017-Dec-02 18:01N 50°59' E 001°34'918.8
2017-Dec-02 17:30N 51°06' E 001°24'3 4.6
2017-Dec-02 16:51N 51°07' E 001°20'0 0.2
2017-Dec-02 16:27N 51°07' E 001°20'614.2
2017-Dec-02 16:01N 51°06' E 001°30'918.5
2017-Dec-02 15:31N 50°60' E 001°41'712.9
2017-Dec-02 15:00N 50°58' E 001°51'0 0.0
2017-Dec-02 14:30N 50°58' E 001°51'3 5.6
2017-Dec-02 14:01N 50°58' E 001°47'918.1
2017-Dec-02 13:30N 51°01' E 001°33'1018.9
2017-Dec-02 13:00N 51°07' E 001°21'1 1.4
2017-Dec-02 12:29N 51°07' E 001°20'1 1.5
2017-Dec-02 12:00N 51°07' E 001°21'816.8
2017-Dec-02 11:30N 51°04' E 001°33'917.4
2017-Dec-02 11:00N 50°59' E 001°44'4 8.3
2017-Dec-02 10:30N 50°58' E 001°51'0 0.0
2017-Dec-02 10:00N 50°58' E 001°51'5 9.3
2017-Dec-02 09:31N 50°58' E 001°44'1019.0
2017-Dec-02 09:00N 51°02' E 001°30'815.2
2017-Dec-02 08:28N 51°07' E 001°20'0 0.0
2017-Dec-02 07:34N 51°07' E 001°20'0 0.2
2017-Dec-02 07:14N 51°07' E 001°20'2 7.1
2017-Dec-02 07:00N 51°07' E 001°23'917.2
2017-Dec-02 06:30N 51°03' E 001°35'918.2
2017-Dec-02 06:01N 50°58' E 001°47'3 5.1
2017-Dec-02 05:30N 50°58' E 001°51'0 0.0
2017-Dec-02 05:00N 50°58' E 001°51'4 8.5
2017-Dec-02 04:30N 50°58' E 001°44'816.1
2017-Dec-02 04:00N 51°00' E 001°32'816.8
2017-Dec-02 03:30N 51°06' E 001°23'2 1.6
2017-Dec-02 02:16N 51°07' E 001°20'2 7.4
2017-Dec-02 02:01N 51°07' E 001°23'815.4
2017-Dec-02 01:30N 51°03' E 001°34'815.8
2017-Dec-02 01:01N 50°58' E 001°44'4 8.9
2017-Dec-02 00:30N 50°58' E 001°51'0 0.0
2017-Dec-01 23:59N 50°58' E 001°51'0 0.0
2017-Dec-01 23:30N 50°58' E 001°51'511.1
2017-Dec-01 23:00N 50°58' E 001°42'1019.0
2017-Dec-01 22:30N 51°03' E 001°29'7 7.5
2017-Dec-01 21:32N 51°07' E 001°20'267.3
2017-Dec-01 21:30N 51°07' E 001°24'1 1.4
2017-Dec-01 20:52N 51°07' E 001°22'617.3
2017-Dec-01 20:30N 51°06' E 001°32'917.7
2017-Dec-01 20:00N 50°59' E 001°42'611.9
2017-Dec-01 19:31N 50°58' E 001°51'0 0.0
2017-Dec-01 18:56N 50°58' E 001°51'4 8.2
2017-Dec-01 18:30N 50°58' E 001°45'816.7
2017-Dec-01 18:00N 50°60' E 001°32'918.5
2017-Dec-01 17:31N 51°06' E 001°22'  

Dump ship's entire track history